createdAt,value
2018-04-19T00:00:05.782Z,14.50
2018-04-19T00:02:34.405Z,14.40
2018-04-19T00:05:02.934Z,14.40
2018-04-19T00:07:31.450Z,14.30
2018-04-19T00:10:00.783Z,14.30
2018-04-19T00:12:30.105Z,14.40
2018-04-19T00:14:58.814Z,14.40
2018-04-19T00:17:27.357Z,14.50
2018-04-19T00:19:55.850Z,14.50
2018-04-19T00:22:24.365Z,14.50
2018-04-19T00:24:52.788Z,14.50
2018-04-19T00:27:21.257Z,14.50
2018-04-19T00:29:50.522Z,14.60
2018-04-19T00:32:19.132Z,14.60
2018-04-19T00:34:47.726Z,14.60
2018-04-19T00:37:16.520Z,14.50
2018-04-19T00:39:46.200Z,14.80
2018-04-19T00:42:15.201Z,14.70
2018-04-19T00:44:43.672Z,14.90
2018-04-19T00:47:12.158Z,14.90
2018-04-19T00:49:41.197Z,15.10
2018-04-19T00:52:09.717Z,15.30
2018-04-19T00:54:38.233Z,15.40
2018-04-19T00:57:06.674Z,15.60
2018-04-19T00:59:35.883Z,15.90
2018-04-19T01:02:04.404Z,16.10
2018-04-19T01:04:32.937Z,16.00
2018-04-19T01:07:01.432Z,16.20
2018-04-19T01:09:29.921Z,16.20
2018-04-19T01:11:58.335Z,16.20
2018-04-19T01:14:27.064Z,16.20
2018-04-19T01:16:56.398Z,16.20
2018-04-19T01:19:24.827Z,16.20
2018-04-19T01:21:53.343Z,16.10
2018-04-19T01:24:21.833Z,16.00
2018-04-19T01:26:50.294Z,15.80
2018-04-19T01:29:19.776Z,15.70
2018-04-19T01:31:48.289Z,15.50
2018-04-19T01:34:16.822Z,15.40
2018-04-19T01:36:51.272Z,15.30
2018-04-19T01:39:19.797Z,15.10
2018-04-19T01:41:48.244Z,15.10
2018-04-19T01:44:16.812Z,15.00
2018-04-19T01:46:45.252Z,15.00
2018-04-19T01:49:13.749Z,14.90
2018-04-19T01:51:42.446Z,14.80
2018-04-19T01:54:11.020Z,14.70
2018-04-19T01:56:39.522Z,14.60
2018-04-19T01:59:08.266Z,14.50
2018-04-19T02:01:36.721Z,14.50
2018-04-19T02:04:04.869Z,14.50
2018-04-19T02:06:49.706Z,14.50
2018-04-19T02:09:17.998Z,14.50
2018-04-19T02:11:46.525Z,14.50
2018-04-19T02:14:14.784Z,14.40
2018-04-19T02:16:43.410Z,14.20
2018-04-19T02:19:11.970Z,14.00
2018-04-19T02:21:40.432Z,14.00
2018-04-19T02:24:08.903Z,13.90
2018-04-19T02:26:37.345Z,13.80
2018-04-19T02:29:05.842Z,13.70
2018-04-19T02:31:34.309Z,13.60
2018-04-19T02:34:02.845Z,13.50
2018-04-19T02:36:31.074Z,13.40
2018-04-19T02:38:59.643Z,13.50
2018-04-19T02:41:29.076Z,13.60
2018-04-19T02:43:57.696Z,13.60
2018-04-19T02:46:26.151Z,13.60
2018-04-19T02:48:54.701Z,13.50
2018-04-19T02:51:23.167Z,13.70
2018-04-19T02:53:51.645Z,13.70
2018-04-19T02:56:19.906Z,14.10
2018-04-19T02:58:48.485Z,14.00
2018-04-19T03:01:17.122Z,14.00
2018-04-19T03:03:45.723Z,14.10
2018-04-19T03:06:14.148Z,14.00
2018-04-19T03:08:42.410Z,14.00
2018-04-19T03:11:10.887Z,14.00
2018-04-19T03:13:39.356Z,14.10
2018-04-19T03:16:07.956Z,14.20
2018-04-19T03:18:36.458Z,14.40
2018-04-19T03:21:05.128Z,14.40
2018-04-19T03:23:33.670Z,14.50
2018-04-19T03:26:03.372Z,14.70
2018-04-19T03:28:32.718Z,15.50
2018-04-19T03:31:01.212Z,15.40
2018-04-19T03:33:29.922Z,15.40
2018-04-19T03:35:58.425Z,15.30
2018-04-19T03:38:26.971Z,15.30
2018-04-19T03:40:56.302Z,15.20
2018-04-19T03:43:24.896Z,15.20
2018-04-19T03:45:53.595Z,15.40
2018-04-19T03:48:22.518Z,15.40
2018-04-19T03:50:51.212Z,15.30
2018-04-19T03:53:19.673Z,15.30
2018-04-19T03:55:48.262Z,15.50
2018-04-19T03:58:16.926Z,15.60
2018-04-19T04:00:45.369Z,15.60
2018-04-19T04:03:13.905Z,15.70
2018-04-19T04:05:43.362Z,15.70
2018-04-19T04:08:12.041Z,15.70
2018-04-19T04:10:40.726Z,15.90
2018-04-19T04:13:10.436Z,15.90
2018-04-19T04:15:39.228Z,15.90
2018-04-19T04:18:18.936Z,15.80
2018-04-19T04:20:58.522Z,15.70
2018-04-19T04:23:45.463Z,15.60
2018-04-19T04:26:14.857Z,15.50
2018-04-19T04:28:44.417Z,15.50
2018-04-19T04:31:12.801Z,15.50
2018-04-19T04:33:41.446Z,15.30
2018-04-19T04:36:09.935Z,15.30
2018-04-19T04:38:38.469Z,15.30
2018-04-19T04:41:07.681Z,15.20
2018-04-19T04:43:37.161Z,15.20
2018-04-19T04:46:05.584Z,15.20
2018-04-19T04:48:34.857Z,15.20
2018-04-19T04:51:03.116Z,15.20
2018-04-19T04:53:31.385Z,15.10
2018-04-19T04:56:00.850Z,15.20
2018-04-19T04:58:29.338Z,15.20
2018-04-19T05:00:58.227Z,15.30
2018-04-19T05:03:28.774Z,15.50
2018-04-19T05:05:57.806Z,15.90
2018-04-19T05:08:25.985Z,15.90
2018-04-19T05:10:54.487Z,16.10
2018-04-19T05:13:22.941Z,16.30
2018-04-19T05:15:51.387Z,16.50
2018-04-19T05:18:24.013Z,16.60
2018-04-19T05:20:52.467Z,16.80
2018-04-19T05:23:20.982Z,17.00
2018-04-19T05:28:48.572Z,17.30
2018-04-19T05:31:17.074Z,17.50
2018-04-19T05:33:45.663Z,17.80
2018-04-19T05:36:14.267Z,18.10
2018-04-19T05:38:42.770Z,18.40
2018-04-19T05:41:11.264Z,18.60
2018-04-19T05:43:39.919Z,18.70
2018-04-19T05:46:08.460Z,19.00
2018-04-19T05:48:38.011Z,19.30
2018-04-19T05:51:06.712Z,19.50
2018-04-19T05:53:35.392Z,19.80
2018-04-19T05:56:04.072Z,19.80
2018-04-19T05:58:34.321Z,20.30
2018-04-19T06:01:04.085Z,20.20
2018-04-19T06:03:32.687Z,20.60
2018-04-19T06:06:01.743Z,20.50
2018-04-19T06:08:31.048Z,20.90
2018-04-19T06:11:10.624Z,21.20
2018-04-19T06:13:39.109Z,21.20
2018-04-19T06:16:08.138Z,21.70
2018-04-19T06:18:36.642Z,21.70
2018-04-19T06:21:05.174Z,21.90
2018-04-19T06:23:33.624Z,22.00
2018-04-19T06:26:01.890Z,22.20
2018-04-19T06:28:31.133Z,22.70
2018-04-19T06:30:59.677Z,22.60
2018-04-19T06:33:28.167Z,22.50
2018-04-19T06:35:56.700Z,22.80
2018-04-19T06:38:26.242Z,23.10
2018-04-19T06:40:54.798Z,23.30
2018-04-19T06:43:23.391Z,23.60
2018-04-19T06:45:52.677Z,23.80
2018-04-19T06:48:21.233Z,23.80
2018-04-19T06:50:49.723Z,24.00
2018-04-19T06:53:18.284Z,24.10
2018-04-19T06:55:46.771Z,23.80
2018-04-19T06:58:31.035Z,24.10
2018-04-19T07:00:59.747Z,24.30
2018-04-19T07:03:28.802Z,24.60
2018-04-19T07:05:57.334Z,24.80
2018-04-19T07:08:25.775Z,25.00
2018-04-19T07:10:54.644Z,25.40
2018-04-19T07:13:29.463Z,25.50
2018-04-19T07:15:58.068Z,25.80
2018-04-19T07:18:26.550Z,26.10
2018-04-19T07:20:55.259Z,26.00
2018-04-19T07:23:23.857Z,25.90
2018-04-19T07:25:52.340Z,26.20
2018-04-19T07:28:21.089Z,26.40
2018-04-19T07:30:49.391Z,26.40
2018-04-19T07:33:18.502Z,26.70
2018-04-19T07:35:47.141Z,26.80
2018-04-19T07:38:15.636Z,26.90
2018-04-19T07:40:50.178Z,26.70
2018-04-19T07:43:19.446Z,26.10
2018-04-19T07:45:48.093Z,26.10
2018-04-19T07:48:16.935Z,26.30
2018-04-19T07:50:45.841Z,26.50
2018-04-19T07:53:16.290Z,26.70
2018-04-19T07:55:53.598Z,26.70
2018-04-19T07:58:22.284Z,26.90
2018-04-19T08:00:51.064Z,26.90
2018-04-19T08:03:21.569Z,26.90
2018-04-19T08:05:50.098Z,27.10
2018-04-19T08:08:18.665Z,27.00
2018-04-19T08:10:47.304Z,27.00
2018-04-19T08:13:15.863Z,27.40
2018-04-19T08:15:44.400Z,27.60
2018-04-19T08:18:21.711Z,27.60
2018-04-19T08:20:50.211Z,27.60
2018-04-19T08:23:18.656Z,27.50
2018-04-19T08:25:47.158Z,27.70
2018-04-19T08:28:16.401Z,28.00
2018-04-19T08:30:50.805Z,28.00
2018-04-19T08:33:19.302Z,28.20
2018-04-19T08:35:48.600Z,28.30
2018-04-19T08:38:17.125Z,28.30
2018-04-19T08:40:45.641Z,28.60
2018-04-19T08:43:19.424Z,28.10
2018-04-19T08:45:47.911Z,28.40
2018-04-19T08:48:23.058Z,28.90
2018-04-19T08:50:52.306Z,28.90
2018-04-19T08:53:20.838Z,28.90
2018-04-19T08:55:49.387Z,29.00
2018-04-19T08:58:17.894Z,29.10
2018-04-19T09:00:46.462Z,29.20
2018-04-19T09:03:15.707Z,29.00
2018-04-19T09:05:44.219Z,29.00
2018-04-19T09:08:12.741Z,29.00
2018-04-19T09:10:43.797Z,29.30
2018-04-19T09:13:13.357Z,29.10
2018-04-19T09:15:45.677Z,28.30
2018-04-19T09:18:20.720Z,28.50
2018-04-19T09:20:51.030Z,28.90
2018-04-19T09:23:19.542Z,29.10
2018-04-19T09:25:48.386Z,29.20
2018-04-19T09:28:17.664Z,28.20
2018-04-19T09:30:46.185Z,28.20
2018-04-19T09:33:14.702Z,28.20
2018-04-19T09:35:43.152Z,27.90
2018-04-19T09:38:11.662Z,27.80
2018-04-19T09:40:40.248Z,28.30
2018-04-19T09:43:08.802Z,28.60
2018-04-19T09:45:37.359Z,29.00
2018-04-19T09:48:05.877Z,29.40
2018-04-19T09:50:35.155Z,29.60
2018-04-19T09:53:03.675Z,29.60
2018-04-19T09:55:33.337Z,29.90
2018-04-19T09:58:08.898Z,29.90
2018-04-19T10:00:42.890Z,30.00
2018-04-19T10:03:17.357Z,30.10
2018-04-19T10:05:59.206Z,30.20
2018-04-19T10:08:27.716Z,30.00
2018-04-19T10:10:56.995Z,29.80
2018-04-19T10:13:25.519Z,29.80
2018-04-19T10:15:54.066Z,30.70
2018-04-19T10:18:22.708Z,30.80
2018-04-19T10:20:51.205Z,30.50
2018-04-19T10:23:19.883Z,30.50
2018-04-19T10:28:40.935Z,31.00
2018-04-19T10:31:09.207Z,31.20
2018-04-19T10:33:41.649Z,30.70
2018-04-19T10:36:10.409Z,31.00
2018-04-19T10:38:43.539Z,31.50
2018-04-19T10:41:12.844Z,31.30
2018-04-19T10:43:41.622Z,31.30
2018-04-19T10:46:10.599Z,32.00
2018-04-19T10:48:39.137Z,31.90
2018-04-19T10:51:07.652Z,32.20
2018-04-19T10:53:36.142Z,32.20
2018-04-19T10:56:04.153Z,32.50
2018-04-19T10:58:35.245Z,32.10
2018-04-19T11:01:04.118Z,32.10
2018-04-19T11:03:33.408Z,32.40
2018-04-19T11:06:01.658Z,32.70
2018-04-19T11:08:30.816Z,32.60
2018-04-19T11:10:59.297Z,33.00
2018-04-19T11:13:28.598Z,33.10
2018-04-19T11:15:57.133Z,33.10
2018-04-19T11:18:25.688Z,33.10
2018-04-19T11:20:58.093Z,32.90
2018-04-19T11:23:26.576Z,32.70
2018-04-19T11:25:57.243Z,32.70
2018-04-19T11:28:25.915Z,32.50
2018-04-19T11:30:54.311Z,32.70
2018-04-19T11:33:23.046Z,32.60
2018-04-19T11:35:56.144Z,32.50
2018-04-19T11:38:26.756Z,32.30
2018-04-19T11:41:00.173Z,32.40
2018-04-19T11:46:26.787Z,32.40
2018-04-19T11:48:56.284Z,32.90
2018-04-19T11:51:24.820Z,33.00
2018-04-19T11:53:53.356Z,33.20
2018-04-19T11:56:21.835Z,32.90
2018-04-19T11:58:50.343Z,32.30
2018-04-19T12:01:18.773Z,32.70
2018-04-19T12:03:47.263Z,33.00
2018-04-19T12:06:16.510Z,33.40
2018-04-19T12:08:45.027Z,33.30
2018-04-19T12:11:14.619Z,33.70
2018-04-19T12:13:43.197Z,33.80
2018-04-19T12:16:21.399Z,33.30
2018-04-19T12:18:57.826Z,33.30
2018-04-19T12:21:34.066Z,33.30
2018-04-19T12:24:02.610Z,33.80
2018-04-19T12:26:30.898Z,33.00
2018-04-19T12:28:59.391Z,32.90
2018-04-19T12:31:27.995Z,32.90
2018-04-19T12:33:56.634Z,32.60
2018-04-19T12:36:25.312Z,32.20
2018-04-19T12:38:57.194Z,32.00
2018-04-19T12:41:25.704Z,31.80
2018-04-19T12:43:54.219Z,31.30
2018-04-19T12:46:22.772Z,31.40
2018-04-19T12:49:05.165Z,31.40
2018-04-19T12:51:33.734Z,31.30
2018-04-19T12:54:01.897Z,31.30
2018-04-19T12:56:30.416Z,31.60
2018-04-19T12:58:59.108Z,31.20
2018-04-19T13:01:27.636Z,31.40
2018-04-19T13:03:56.131Z,31.40
2018-04-19T13:06:24.633Z,31.50
2018-04-19T13:08:53.093Z,31.00
2018-04-19T13:11:21.575Z,31.20
2018-04-19T13:13:50.075Z,31.20
2018-04-19T13:16:18.836Z,30.90
2018-04-19T13:18:53.432Z,31.10
2018-04-19T13:21:22.078Z,30.80
2018-04-19T13:26:54.398Z,30.20
2018-04-19T13:29:22.950Z,30.50
2018-04-19T13:31:52.130Z,30.80
2018-04-19T13:34:20.812Z,30.60
2018-04-19T13:36:49.559Z,30.90
2018-04-19T13:39:18.114Z,31.40
2018-04-19T13:41:47.384Z,31.20
2018-04-19T13:44:16.790Z,31.20
2018-04-19T13:46:45.368Z,31.20
2018-04-19T13:49:13.870Z,30.80
2018-04-19T13:51:42.428Z,30.40
2018-04-19T13:54:10.906Z,30.10
2018-04-19T13:56:39.958Z,30.00
2018-04-19T13:59:08.647Z,30.00
2018-04-19T14:01:37.127Z,30.00
2018-04-19T14:04:05.648Z,30.10
2018-04-19T14:06:56.847Z,30.10
2018-04-19T14:12:19.419Z,29.90
2018-04-19T14:14:48.748Z,30.00
2018-04-19T14:17:18.016Z,30.00
2018-04-19T14:19:52.459Z,29.90
2018-04-19T14:22:21.051Z,29.90
2018-04-19T14:24:49.625Z,29.60
2018-04-19T14:27:18.147Z,29.50
2018-04-19T14:29:52.244Z,29.40
2018-04-19T14:32:22.488Z,29.40
2018-04-19T14:34:51.012Z,29.20
2018-04-19T14:37:19.569Z,29.00
2018-04-19T14:39:48.074Z,29.20
2018-04-19T14:42:23.349Z,29.20
2018-04-19T14:44:51.827Z,29.10
2018-04-19T14:50:23.277Z,28.70
2018-04-19T14:52:51.767Z,28.70
2018-04-19T14:55:20.356Z,28.80
2018-04-19T14:57:52.502Z,28.80
2018-04-19T15:00:22.515Z,28.60
2018-04-19T15:02:51.024Z,28.60
2018-04-19T15:05:22.282Z,28.70
2018-04-19T15:07:50.930Z,28.70
2018-04-19T15:10:20.216Z,28.40
2018-04-19T15:12:48.727Z,28.40
2018-04-19T15:15:33.589Z,28.50
2018-04-19T15:18:14.232Z,28.30
2018-04-19T15:20:42.716Z,28.10
2018-04-19T15:23:11.242Z,28.10
2018-04-19T15:25:40.813Z,28.00
2018-04-19T15:30:50.297Z,28.00
2018-04-19T15:33:18.854Z,27.90
2018-04-19T15:35:48.142Z,28.00
2018-04-19T15:38:16.664Z,28.00
2018-04-19T15:40:45.357Z,27.90
2018-04-19T15:43:13.645Z,27.80
2018-04-19T15:45:43.228Z,27.80
2018-04-19T15:48:11.693Z,27.80
2018-04-19T15:50:40.226Z,27.90
2018-04-19T15:53:08.731Z,27.90
2018-04-19T15:55:37.371Z,27.80
2018-04-19T15:58:05.597Z,27.90
2018-04-19T16:00:34.088Z,27.90
2018-04-19T16:05:42.163Z,27.70
2018-04-19T16:08:10.756Z,27.60
2018-04-19T16:10:39.237Z,27.60
2018-04-19T16:13:08.811Z,27.60
2018-04-19T16:15:37.296Z,27.60
2018-04-19T16:18:06.583Z,27.40
2018-04-19T16:20:35.042Z,27.40
2018-04-19T16:23:03.759Z,27.40
2018-04-19T16:25:32.290Z,27.30
2018-04-19T16:28:00.842Z,27.10
2018-04-19T16:30:29.362Z,27.20
2018-04-19T16:33:13.030Z,27.10
2018-04-19T16:35:41.543Z,27.10
2018-04-19T16:38:10.209Z,27.10
2018-04-19T16:40:38.760Z,26.90
2018-04-19T16:43:07.258Z,26.90
2018-04-19T16:45:35.778Z,26.90
2018-04-19T16:48:04.282Z,26.80
2018-04-19T16:50:32.834Z,26.80
2018-04-19T16:53:01.565Z,26.80
2018-04-19T16:55:30.074Z,26.90
2018-04-19T16:58:09.443Z,26.90
2018-04-19T17:00:38.726Z,26.70
2018-04-19T17:03:07.253Z,26.70
2018-04-19T17:05:35.806Z,26.60
2018-04-19T17:08:04.307Z,26.60
2018-04-19T17:10:32.851Z,26.50
2018-04-19T17:13:01.344Z,26.50
2018-04-19T17:15:29.880Z,26.40
2018-04-19T17:17:58.379Z,26.30
2018-04-19T17:20:26.952Z,26.30
2018-04-19T17:22:55.459Z,26.20
2018-04-19T17:25:24.015Z,26.10
2018-04-19T17:27:52.531Z,26.10
2018-04-19T17:30:21.128Z,26.10
2018-04-19T17:32:49.867Z,26.00
2018-04-19T17:35:18.420Z,26.00
2018-04-19T17:37:47.726Z,26.00
2018-04-19T17:40:16.239Z,25.90
2018-04-19T17:42:44.789Z,25.80
2018-04-19T17:45:14.252Z,25.80
2018-04-19T17:47:55.473Z,25.70
2018-04-19T17:50:24.091Z,25.60
2018-04-19T17:52:52.358Z,25.50
2018-04-19T17:55:20.891Z,25.40
2018-04-19T17:57:49.386Z,25.40
2018-04-19T18:00:17.937Z,25.30
2018-04-19T18:02:50.395Z,25.10
2018-04-19T18:05:19.072Z,25.10
2018-04-19T18:07:48.114Z,25.00
2018-04-19T18:10:17.127Z,24.80
2018-04-19T18:15:50.388Z,24.60
2018-04-19T18:27:22.060Z,24.20
2018-04-19T18:29:51.422Z,24.00
2018-04-19T18:32:21.155Z,23.90
2018-04-19T18:43:53.694Z,23.10
2018-04-19T18:46:22.249Z,23.00
2018-04-19T18:51:30.889Z,22.70
2018-04-19T18:53:59.418Z,22.60
2018-04-19T18:56:33.655Z,22.50
2018-04-19T18:59:02.370Z,22.40
2018-04-19T19:01:33.883Z,22.30
2018-04-19T19:04:02.537Z,22.30
2018-04-19T19:06:30.807Z,22.20
2018-04-19T19:08:59.362Z,22.10
2018-04-19T19:11:30.797Z,21.70
2018-04-19T19:13:59.593Z,21.70
2018-04-19T19:16:28.164Z,21.50
2018-04-19T19:19:07.817Z,21.40
2018-04-19T19:21:37.235Z,21.00
2018-04-19T19:27:18.806Z,20.70
2018-04-19T19:29:47.331Z,20.50
2018-04-19T19:32:15.901Z,20.40
2018-04-19T19:34:44.522Z,20.30
2018-04-19T19:37:24.979Z,20.30
2018-04-19T19:39:53.515Z,20.20
2018-04-19T19:42:22.986Z,20.20
2018-04-19T19:44:51.475Z,20.10
2018-04-19T19:47:19.754Z,20.00
2018-04-19T19:49:48.295Z,19.90
2018-04-19T19:52:17.017Z,19.80
2018-04-19T19:54:45.875Z,19.80
2018-04-19T20:00:04.402Z,19.70
2018-04-19T20:02:33.009Z,19.60
2018-04-19T20:05:06.452Z,19.50
2018-04-19T20:07:35.067Z,19.40
2018-04-19T20:10:05.162Z,19.40
2018-04-19T20:12:33.793Z,19.30
2018-04-19T20:15:02.354Z,19.20
2018-04-19T20:17:30.832Z,19.10
2018-04-19T20:19:59.333Z,19.00
2018-04-19T20:22:28.609Z,18.80
2018-04-19T20:24:58.220Z,18.70
2018-04-19T20:27:26.751Z,18.70
2018-04-19T20:29:55.291Z,18.60
2018-04-19T20:32:24.624Z,18.40
2018-04-19T20:34:53.223Z,18.30
2018-04-19T20:37:21.772Z,18.20
2018-04-19T20:39:50.135Z,18.10
2018-04-19T20:42:20.643Z,18.00
2018-04-19T20:44:50.206Z,17.90
2018-04-19T20:47:19.658Z,17.90
2018-04-19T20:49:50.224Z,17.70
2018-04-19T20:52:22.889Z,17.70
2018-04-19T20:54:51.507Z,17.60
2018-04-19T20:57:20.228Z,17.60
2018-04-19T20:59:50.976Z,17.80
2018-04-19T21:02:20.939Z,18.00
2018-04-19T21:04:51.495Z,18.00
2018-04-19T21:07:23.281Z,17.90
2018-04-19T21:09:51.653Z,18.00
2018-04-19T21:12:21.274Z,18.10
2018-04-19T21:14:49.794Z,18.20
2018-04-19T21:19:56.402Z,18.40
2018-04-19T21:22:24.939Z,18.50
2018-04-19T21:24:55.131Z,18.50
2018-04-19T21:27:23.635Z,18.40
2018-04-19T21:29:52.405Z,18.40
2018-04-19T21:32:21.095Z,18.30
2018-04-19T21:35:20.253Z,18.30
2018-04-19T21:37:48.791Z,18.10
2018-04-19T21:40:18.472Z,18.10
2018-04-19T21:42:46.944Z,18.00
2018-04-19T21:45:18.124Z,18.00
2018-04-19T21:47:46.598Z,18.00
2018-04-19T21:53:26.494Z,17.90
2018-04-19T21:55:56.254Z,17.80
2018-04-19T21:58:24.736Z,17.80
2018-04-19T22:03:45.948Z,17.70
2018-04-19T22:06:15.234Z,17.70
2018-04-19T22:08:44.330Z,17.70
2018-04-19T22:11:12.976Z,17.80
2018-04-19T22:13:41.467Z,17.80
2018-04-19T22:16:20.110Z,17.80
2018-04-19T22:18:49.443Z,17.90
2018-04-19T22:21:17.957Z,17.90
2018-04-19T22:23:46.123Z,17.90
2018-04-19T22:26:14.670Z,17.90
2018-04-19T22:28:49.663Z,17.90
2018-04-19T22:31:18.501Z,18.00
2018-04-19T22:33:47.015Z,18.00
2018-04-19T22:36:15.489Z,17.90
2018-04-19T22:38:44.005Z,17.90
2018-04-19T22:41:12.504Z,17.90
2018-04-19T22:43:40.998Z,17.90
2018-04-19T22:46:09.507Z,18.00
2018-04-19T22:48:38.036Z,18.00
2018-04-19T22:51:06.348Z,18.10
2018-04-19T22:53:34.916Z,18.00
2018-04-19T22:56:03.559Z,18.20
2018-04-19T22:58:50.280Z,18.20
2018-04-19T23:01:20.616Z,18.10
2018-04-19T23:03:49.152Z,18.00
2018-04-19T23:06:17.677Z,18.00
2018-04-19T23:08:57.711Z,17.70
2018-04-19T23:11:49.712Z,17.60
2018-04-19T23:14:18.241Z,17.50
2018-04-19T23:16:46.873Z,17.40
2018-04-19T23:22:09.162Z,17.00
2018-04-19T23:24:37.607Z,16.80
2018-04-19T23:27:06.085Z,16.70
2018-04-19T23:29:53.124Z,16.70
2018-04-19T23:32:21.436Z,16.60
2018-04-19T23:34:50.729Z,16.30
2018-04-19T23:37:19.175Z,16.30
2018-04-19T23:46:59.301Z,16.30
2018-04-19T23:49:27.800Z,16.30
2018-04-19T23:51:56.336Z,16.30
2018-04-19T23:54:24.803Z,16.20
2018-04-19T23:56:53.347Z,16.10
2018-04-19T23:59:21.836Z,16.00
